Latest Weather Observations for Broken Hill Airport

IDN60801

Issued at 10:03 am EST Tuesday 26 May 2020 (issued every 10 minutes, with the page automatically refreshed every 10 minutes)

About weather observations | Map of weather stations | Latest weather observations for NSW | Other Formats
Station Details ID: 047048 Name: BROKEN HILL AIRPORT AWS Lat: -32.00 Lon: 141.47 Height: 281.3 m
Data from the previous 72 hours. | See also: Recent months at Broken Hill Airport

Observations are collected in the New South Wales time zone (Eastern Standard Time) which includes daylight savings in the summer period. Therefore 'Rain since 9am' totals and other values are based on the New South Wales time zone, which may differ from local time.

Date/Time
EST
Temp
°C
App
Temp
°C
Dew
Point
°C
Rel
Hum
%
Delta-T
°C
Wind Press
QNH
hPa
Press
MSL
hPa
Rain since
9am
mm
Dir  Spd
km/h
Gust
km/h
Spd
kts
Gust
kts
26/10:00am 10.3 6.5 4.0 65 2.8 NE 13 17 7 9 1023.2 1023.0 0.0
26/09:30am 9.1 6.1 3.9 70 2.3 ENE 9 13 5 7 1023.5 1023.3 0.0
26/09:00am 9.5 5.7 3.9 68 2.5 NNE 13 17 7 9 1023.4 1023.2 0.0
26/08:30am 6.9 5.1 3.7 80 1.4 NE 2 7 1 4 1023.5 1023.3 0.0
26/08:00am 5.7 2.8 2.7 81 1.2 NNE 7 7 4 4 1022.8 1022.7 0.0
26/07:30am 5.7 2.1 3.2 84 1.1 NE 11 13 6 7 1022.5 1022.4 0.0
26/07:00am 5.7 1.4 3.0 83 1.1 ENE 15 15 8 8 1022.4 1022.3 0.0
26/06:30am 4.8 3.2 2.3 84 1.0 CALM 0 0 0 0 1022.5 1022.4 0.0
26/06:00am 5.4 3.9 3.1 85 1.0 CALM 0 0 0 0 1022.4 1022.3 0.0
26/05:30am 6.1 4.7 3.3 82 1.2 CALM 0 0 0 0 1021.9 1021.8 0.0
26/05:00am 4.2 2.5 1.9 85 0.9 CALM 0 0 0 0 1021.7 1021.6 0.0
26/04:30am 5.6 4.0 2.6 81 1.2 CALM 0 0 0 0 1021.9 1021.8 0.0
26/04:00am 5.4 3.9 2.9 84 1.0 CALM 0 0 0 0 1021.9 1021.8 0.0
26/03:30am 5.5 2.7 2.2 79 1.4 N 6 6 3 3 1022.5 1022.4 0.0
26/03:00am 6.1 3.2 2.6 78 1.5 N 7 7 4 4 1022.4 1022.3 0.0
26/02:30am 5.1 3.6 3.0 86 0.9 CALM 0 0 0 0 1022.7 1022.6 0.0
26/02:00am 4.4 2.7 1.6 82 1.1 CALM 0 0 0 0 1023.0 1022.8 0.0
26/01:30am 6.7 3.8 2.6 75 1.7 NNW 7 9 4 5 1023.3 1023.1 0.0
26/01:00am 7.3 4.1 2.8 73 1.9 NNW 9 11 5 6 1023.5 1023.3 0.0
26/12:30am 8.1 5.0 3.4 72 2.0 ENE 9 11 5 6 1022.7 1022.6 0.0
26/12:00am 8.1 4.2 3.6 73 2.0 E 13 15 7 8 1022.5 1022.4 0.0
 
Date/Time
EST
Temp
°C
App
Temp
°C
Dew
Point
°C
Rel
Hum
%
Delta-T
°C
Wind Press
QNH
hPa
Press
MSL
hPa
Rain since
9am
mm
Dir  Spd
km/h
Gust
km/h
Spd
kts
Gust
kts
25/11:30pm 8.1 4.3 3.8 74 1.9 ESE 13 17 7 9 1022.4 1022.3 0.0
25/11:00pm 8.2 5.4 3.3 71 2.1 E 7 11 4 6 1022.5 1022.4 0.0
25/10:30pm 8.6 5.5 3.8 72 2.1 E 9 9 5 5 1022.5 1022.4 0.0
25/10:00pm 9.1 6.0 3.7 69 2.4 E 9 11 5 6 1022.6 1022.5 0.0
25/09:30pm 9.2 6.1 3.6 68 2.5 E 9 11 5 6 1022.8 1022.7 0.0
25/09:00pm 9.1 6.1 3.9 70 2.3 E 9 11 5 6 1022.8 1022.7 0.0
25/08:30pm 9.8 7.1 3.8 66 2.7 E 7 9 4 5 1023.0 1022.8 0.0
25/08:00pm 9.4 5.6 3.8 68 2.5 ESE 13 15 7 8 1022.7 1022.6 0.0
25/07:30pm 10.1 6.7 3.8 65 2.8 SE 11 13 6 7 1022.5 1022.4 0.0
25/07:00pm 10.1 6.7 4.0 66 2.7 SE 11 13 6 7 1022.3 1022.2 0.0
25/06:30pm 11.0 7.6 4.0 62 3.2 SSE 11 13 6 7 1022.4 1022.3 0.0
25/06:00pm 12.0 8.2 3.8 57 3.7 SSE 13 15 7 8 1022.3 1022.2 0.0
25/05:30pm 12.7 8.5 3.9 55 4.0 S 15 17 8 9 1022.3 1022.2 0.0
25/05:00pm 13.2 9.8 3.8 53 4.3 S 11 17 6 9 1022.1 1022.0 0.0
25/04:30pm 13.4 10.4 4.0 53 4.3 SW 9 13 5 7 1022.3 1022.2 0.0
25/04:00pm 13.5 10.4 3.8 52 4.4 SSE 9 13 5 7 1022.2 1022.1 0.0
25/03:30pm 13.5 10.9 4.1 53 4.3 SSW 7 15 4 8 1022.1 1022.0 0.0
25/03:00pm 13.2 10.7 3.8 53 4.3 S 6 15 3 8 1021.9 1021.8 0.0
25/02:30pm 14.0 11.4 4.0 51 4.6 NNW 7 20 4 11 1021.8 1021.7 0.0
25/02:00pm 12.9 9.8 3.8 54 4.1 SSE 9 17 5 9 1022.3 1022.2 0.0
25/01:30pm 13.0 10.6 4.2 55 4.1 S 6 7 3 4 1022.6 1022.5 0.0
25/01:00pm 12.2 9.2 3.9 57 3.8 SSW 9 20 5 11 1023.0 1022.8 0.0
25/12:30pm 11.8 8.0 4.1 59 3.5 S 13 17 7 9 1023.6 1023.4 0.0
25/12:00pm 11.8 8.1 4.3 60 3.4 SSW 13 20 7 11 1024.3 1024.2 0.0
25/11:30am 11.7 8.2 5.3 65 3.0 SW 13 20 7 11 1024.4 1024.3 0.0
25/11:00am 10.6 7.3 4.3 65 2.8 S 11 15 6 8 1024.5 1024.4 0.0
25/10:30am 10.5 6.4 4.6 67 2.7 SSE 15 20 8 11 1024.2 1024.1 0.0
25/10:00am 10.3 5.4 4.2 66 2.7 SSE 19 28 10 15 1024.0 1023.9 0.0
25/09:30am 9.9 5.4 4.3 68 2.5 S 17 20 9 11 1023.9 1023.7 0.0
25/09:00am 9.1 5.6 3.7 69 2.4 SSW 11 13 6 7 1023.3 1023.1 0.0
25/08:30am 8.5 5.4 3.4 70 2.2 SSE 9 11 5 6 1022.8 1022.7 0.0
25/08:00am 7.6 4.4 3.1 73 1.9 SE 9 11 5 6 1022.8 1022.7 0.0
25/07:30am 8.0 4.4 3.1 71 2.1 SSE 11 17 6 9 1022.6 1022.5 0.0
25/07:00am 7.8 4.2 3.1 72 2.0 SSE 11 15 6 8 1022.3 1022.2 0.0
25/06:30am 8.3 1.5 3.0 69 2.3 SE 28 33 15 18 1022.3 1022.2 0.0
25/06:00am 8.4 2.7 3.1 69 2.3 SSE 22 33 12 18 1021.9 1021.8 0.0
25/05:30am 8.1 3.0 3.0 70 2.2 SSE 19 24 10 13 1021.8 1021.7 0.0
25/05:00am 8.0 2.9 2.9 70 2.2 SSE 19 26 10 14 1021.8 1021.7 0.0
25/04:30am 8.2 1.4 3.1 70 2.2 SSE 28 37 15 20 1022.2 1022.1 0.0
25/04:00am 8.3 1.5 3.2 70 2.2 SSE 28 37 15 20 1022.5 1022.4 0.0
25/03:30am 8.4 2.1 3.7 72 2.1 SSE 26 35 14 19 1022.5 1022.4 0.0
25/03:00am 8.3 2.4 3.8 73 2.0 S 24 32 13 17 1022.6 1022.5 0.0
25/02:30am 8.1 3.0 4.1 76 1.8 S 20 26 11 14 1023.3 1023.1 0.0
25/02:00am 7.7 2.6 4.1 78 1.6 SSW 20 28 11 15 1023.3 1023.1 0.0
25/01:30am 7.3 2.3 3.7 78 1.6 S 19 24 10 13 1023.3 1023.1 0.0
25/01:00am 7.0 2.3 3.4 78 1.5 S 17 22 9 12 1023.2 1023.0 0.0
25/12:30am 6.8 2.1 3.4 79 1.5 S 17 20 9 11 1023.7 1023.5 0.0
25/12:00am 6.9 2.6 3.3 78 1.5 SSW 15 19 8 10 1024.0 1023.9 0.0
 
Date/Time
EST
Temp
°C
App
Temp
°C
Dew
Point
°C
Rel
Hum
%
Delta-T
°C
Wind Press
QNH
hPa
Press
MSL
hPa
Rain since
9am
mm
Dir  Spd
km/h
Gust
km/h
Spd
kts
Gust
kts
24/11:30pm 6.6 1.9 3.4 80 1.4 SW 17 20 9 11 1024.1 1024.0 0.0
24/11:00pm 6.5 2.6 3.5 81 1.3 SSW 13 13 7 7 1023.9 1023.7 0.0
24/10:30pm 7.0 3.1 3.6 79 1.5 SSW 13 15 7 8 1023.7 1023.5 0.0
24/10:00pm 8.0 3.0 3.7 74 1.9 S 19 22 10 12 1023.6 1023.4 0.0
24/09:30pm 8.7 3.1 3.5 70 2.3 S 22 30 12 16 1023.4 1023.2 0.0
24/09:00pm 9.1 2.8 3.7 69 2.4 S 26 33 14 18 1023.3 1023.1 0.0
24/08:30pm 9.4 3.4 3.6 67 2.6 S 24 33 13 18 1023.2 1023.0 0.0
24/08:00pm 9.4 2.7 3.8 68 2.5 S 28 35 15 19 1022.8 1022.7 0.0
24/07:30pm 9.6 2.9 3.8 67 2.6 S 28 35 15 19 1022.7 1022.6 0.0
24/07:00pm 9.8 3.2 4.0 67 2.6 SSW 28 35 15 19 1022.6 1022.5 0.0
24/06:30pm 10.0 3.4 4.4 68 2.5 SSW 28 37 15 20 1022.3 1022.2 0.0
24/06:00pm 10.1 4.0 4.7 69 2.5 SSW 26 32 14 17 1022.2 1022.1 0.0
24/05:30pm 11.0 4.1 4.5 64 3.0 SSW 30 39 16 21 1022.1 1022.0 0.0
24/05:00pm 11.7 4.4 4.7 62 3.2 S 32 35 17 19 1021.6 1021.5 0.0
24/04:30pm 11.9 3.9 3.9 58 3.6 SSW 35 43 19 23 1021.3 1021.2 0.0
24/04:00pm 12.6 5.1 4.6 58 3.7 SSW 33 41 18 22 1021.2 1021.1 0.0
24/03:30pm 12.7 5.4 5.4 61 3.4 SSW 33 44 18 24 1021.2 1021.1 0.0
24/03:00pm 12.4 5.0 5.1 61 3.4 SSW 33 44 18 24 1021.1 1021.0 0.0
24/02:30pm 12.2 5.0 5.1 62 3.3 SSW 32 41 17 22 1021.2 1021.1 0.0
24/02:00pm 11.7 4.5 5.1 64 3.1 SSW 32 41 17 22 1021.5 1021.4 0.0
24/01:30pm 11.1 4.4 5.4 68 2.7 S 30 39 16 21 1021.7 1021.6 0.0
24/01:00pm 10.9 4.2 5.7 70 2.4 S 30 39 16 21 1021.9 1021.8 0.0
24/12:30pm 10.3 3.6 5.7 73 2.1 S 30 39 16 21 1022.3 1022.2 0.0
24/12:00pm 10.0 2.7 5.6 74 2.0 SSW 33 39 18 21 1022.8 1022.7 0.0
24/11:30am 9.5 2.5 6.0 79 1.6 S 32 39 17 21 1023.1 1022.9 0.0
24/11:00am 9.6 2.9 5.8 77 1.8 S 30 41 16 22 1023.1 1022.9 0.0
24/10:30am 9.6 1.8 6.7 82 1.4 S 37 46 20 25 1023.1 1022.9 0.0
24/10:08am 9.3 1.5 6.6 83 1.3 S 37 46 20 25 1023.0 1022.8 0.0
24/10:00am 9.3 1.1 6.7 84 1.2 S 39 50 21 27 1022.8 1022.7 0.0
24/09:44am 9.9 3.1 7.8 87 1.0 S 33 43 18 23 1022.7 1022.6 0.0
24/09:30am 10.0 3.2 7.9 87 1.0 S 33 41 18 22 1022.5 1022.4 1.2
24/09:00am 9.8 3.8 8.6 92 0.6 S 30 37 16 20 1022.5 1022.4 1.2
24/08:31am 9.5 3.9 8.6 94 0.4 S 28 37 15 20 1022.4 1022.3 1.2
24/08:30am 9.5 3.9 8.6 94 0.4 S 28 37 15 20 1022.3 1022.2 1.2
24/08:00am 9.2 3.5 8.3 94 0.4 S 28 37 15 20 1022.1 1022.0 1.2
24/07:47am 9.5 4.6 8.6 94 0.4 SSW 24 30 13 16 1021.9 1021.8 1.2
24/07:46am 9.5 4.6 8.6 94 0.4 SSW 24 30 13 16 1021.9 1021.8 1.2
24/07:32am 9.6 3.6 8.5 93 0.5 SSW 30 37 16 20 1021.7 1021.6 1.2
24/07:30am 9.6 3.5 8.4 92 0.6 SSW 30 37 16 20 1021.7 1021.6 1.2
24/07:00am 9.8 3.8 8.6 92 0.6 SSW 30 37 16 20 1021.4 1021.3 1.2
24/06:30am 10.4 5.3 9.2 92 0.6 SSW 26 33 14 18 1021.1 1021.0 1.2
24/06:00am 10.5 5.8 9.3 92 0.6 SSW 24 32 13 17 1020.8 1020.6 1.2
24/05:30am 10.5 5.8 9.4 93 0.6 SSW 24 30 13 16 1020.6 1020.4 1.2
24/05:00am 10.5 5.5 9.6 94 0.5 SSW 26 32 14 17 1020.4 1020.2 1.2
24/04:30am 10.6 5.6 9.5 93 0.6 SSW 26 32 14 17 1020.3 1020.1 1.0
24/04:00am 10.6 5.6 9.5 93 0.6 S 26 39 14 21 1020.1 1019.9 1.0
24/03:30am 10.7 5.3 9.6 93 0.6 S 28 39 15 21 1020.0 1019.8 1.0
24/03:13am 10.8 5.4 9.4 91 0.7 S 28 48 15 26 1020.0 1019.8 1.0
24/03:00am 10.6 5.6 9.5 93 0.6 SSW 26 33 14 18 1019.9 1019.7 1.0
24/02:30am 10.5 5.8 9.4 93 0.6 SSW 24 33 13 18 1019.9 1019.7 1.0
24/02:00am 10.2 6.4 9.1 93 0.6 SSW 19 24 10 13 1019.9 1019.7 1.0
24/01:40am 10.1 6.3 9.0 93 0.6 SSW 19 20 10 11 1019.9 1019.7 1.0
24/01:30am 10.0 6.2 9.1 94 0.5 SSW 19 24 10 13 1019.8 1019.6 1.0
24/01:00am 9.6 6.5 8.8 95 0.4 SSW 15 19 8 10 1019.8 1019.6 1.0
24/12:30am 9.8 6.7 8.9 94 0.4 SSW 15 19 8 10 1019.8 1019.6 1.0
24/12:00am 10.1 7.1 9.2 94 0.5 SSW 15 19 8 10 1019.8 1019.6 1.0
 
Date/Time
EST
Temp
°C
App
Temp
°C
Dew
Point
°C
Rel
Hum
%
Delta-T
°C
Wind Press
QNH
hPa
Press
MSL
hPa
Rain since
9am
mm
Dir  Spd
km/h
Gust
km/h
Spd
kts
Gust
kts
23/11:30pm 10.5 6.2 9.4 93 0.6 SSW 22 28 12 15 1019.8 1019.6 1.0
23/11:04pm 10.9 6.3 9.8 93 0.6 SSW 24 28 13 15 1019.9 1019.7 1.0
23/11:00pm 10.9 6.4 10.0 94 0.5 SSW 24 28 13 15 1020.0 1019.8 1.0
23/10:32pm 11.0 5.7 9.9 93 0.6 S 28 33 15 18 1020.1 1019.9 1.0
23/10:30pm 11.0 6.1 9.9 93 0.6 S 26 33 14 18 1020.1 1019.9 1.0
23/10:28pm 11.0 6.1 9.9 93 0.6 S 26 33 14 18 1020.1 1019.9 1.0
23/10:15pm 10.9 5.6 9.7 92 0.6 S 28 35 15 19 1020.0 1019.8 0.8
23/10:11pm 11.0 5.3 9.8 92 0.6 S 30 33 16 18 1020.1 1019.9 0.8
23/10:01pm 11.0 5.6 9.6 91 0.7 S 28 41 15 22 1020.0 1019.8 0.8
23/10:00pm 11.0 5.6 9.6 91 0.7 S 28 41 15 22 1020.0 1019.8 0.8
23/09:59pm 11.1 5.8 9.9 92 0.6 S 28 41 15 22 1020.1 1019.9 0.8
23/09:45pm 11.1 5.4 9.9 92 0.6 S 30 37 16 20 1019.9 1019.7 0.4
23/09:33pm 11.1 6.2 10.0 93 0.6 SSW 26 35 14 19 1020.0 1019.8 0.4
23/09:30pm 11.2 5.9 10.0 92 0.6 S 28 35 15 19 1020.0 1019.8 0.4
23/09:29pm 11.2 5.9 10.0 92 0.6 S 28 35 15 19 1020.1 1019.9 0.4
23/09:00pm 11.3 6.3 9.4 88 1.0 SSW 26 35 14 19 1019.9 1019.7 0.4
23/08:30pm 11.7 7.1 9.8 88 1.0 SSW 24 30 13 16 1019.6 1019.4 0.4
23/08:00pm 11.7 7.1 9.6 87 1.1 SSW 24 30 13 16 1019.5 1019.3 0.4
23/07:30pm 11.8 6.4 9.5 86 1.2 SSW 28 33 15 18 1019.3 1019.1 0.4
23/07:00pm 12.0 7.0 9.4 84 1.3 SSW 26 30 14 16 1018.9 1018.8 0.4
23/06:30pm 12.3 6.8 9.3 82 1.5 SSW 28 35 15 19 1018.6 1018.5 0.4
23/06:00pm 12.4 7.7 9.1 80 1.7 SSW 24 32 13 17 1018.4 1018.3 0.4
23/05:30pm 12.8 7.0 9.4 80 1.8 SSW 30 37 16 20 1018.2 1018.1 0.4
23/05:00pm 13.7 7.8 9.2 74 2.3 SSW 30 39 16 21 1017.9 1017.8 0.4
23/04:30pm 14.0 8.2 9.6 75 2.3 SSW 30 37 16 20 1017.8 1017.6 0.4
23/04:00pm 13.5 9.1 10.3 81 1.7 SSW 24 32 13 17 1017.8 1017.6 0.4
23/03:30pm 14.5 8.7 9.5 72 2.6 SSW 30 35 16 19 1017.7 1017.5 0.4
23/03:00pm 13.7 7.4 9.7 77 2.1 S 33 41 18 22 1017.8 1017.6 0.4
23/02:30pm 14.7 8.8 10.5 76 2.2 SSW 32 41 17 22 1017.8 1017.6 0.4
23/02:00pm 13.9 7.2 9.7 76 2.2 S 35 44 19 24 1017.9 1017.8 0.4
23/01:30pm 13.5 7.8 11.0 85 1.3 S 32 37 17 20 1018.2 1018.1 0.4
23/01:08pm 13.3 7.6 11.2 87 1.1 S 32 41 17 22 1018.4 1018.3 0.2
23/01:00pm 12.5 5.6 10.4 87 1.1 S 37 50 20 27 1018.6 1018.5 0.2
23/12:51pm 12.3 6.1 9.5 83 1.4 SSW 32 50 17 27 1018.6 1018.5 0.2
23/12:48pm 13.9 8.8 11.8 87 1.1 SSW 30 39 16 21 1018.7 1018.6 0.2
23/12:30pm 13.2 8.5 10.7 85 1.3 SSW 26 35 14 19 1019.0 1018.9 0.2
23/12:19pm 13.5 9.5 11.7 89 1.0 SSW 24 30 13 16 1019.1 1019.0 0.2
23/12:00pm 13.2 9.0 11.1 87 1.1 S 24 28 13 15 1019.5 1019.3 0.2
23/11:47am 12.6 7.9 10.8 89 1.0 SSW 26 32 14 17 1019.7 1019.5 0.2
23/11:31am 12.5 9.3 11.2 92 0.7 SSW 19 22 10 12 1019.9 1019.7 0.0
23/11:30am 12.6 9.4 11.3 92 0.7 SSW 19 22 10 12 1019.9 1019.7 0.0
23/11:28am 12.6 9.8 11.3 92 0.7 SSW 17 22 9 12 1019.9 1019.7 0.0
23/11:00am 11.8 9.6 10.7 93 0.6 SSW 13 17 7 9 1020.3 1020.1 0.0

Other formats

Comma delimited format used in spreadsheet applications
http://www.bom.gov.au/fwo/IDN60801/IDN60801.94691.axf

JavaScript Object Notation format (JSON) in row-major order
http://www.bom.gov.au/fwo/IDN60801/IDN60801.94691.json

Data quality

Most of these data are generated automatically and are frequently updated. Quality checks on data are not normally performed. It is possible for incorrect values to appear. Refer to information at About Latest Weather Observations and please check the disclaimer before using these data.